Time;durP1;ratioP1;P1;durP2;ratioP2;P2;SDS_P1;SDS_P2;PMS_P1;PMS_P2;Temp;Humidity;BMP_temperature;BMP_pressure;BME280_temperature;BME280_humidity;BME280_pressure;Samples;Min_cycle;Max_cycle;Signal;HPM_P1;HPM_P2
2023/04/01 00:02:21;;;;;;;14.80;8.27;;;;;;;;;;5050096;28;20037;-62
2023/04/01 00:04:47;;;;;;;16.60;9.27;;;;;;;;;;5049125;28;20041;-62
2023/04/01 00:07:14;;;;;;;18.73;9.80;;;;;;;;;;5049114;28;20095;-62
2023/04/01 00:09:40;;;;;;;15.07;8.20;;;;;;;;;;5049053;28;20090;-63
2023/04/01 00:12:06;;;;;;;18.50;8.13;;;;;;;;;;5049418;28;20041;-63
2023/04/01 00:14:32;;;;;;;19.07;9.47;;;;;;;;;;5049379;28;20051;-62
2023/04/01 00:16:58;;;;;;;14.53;8.67;;;;;;;;;;5048482;28;20064;-62
2023/04/01 00:19:24;;;;;;;19.17;9.60;;;;;;;;;;5048906;28;20057;-62
2023/04/01 00:21:52;;;;;;;14.57;8.03;;;;;;;;;;5049524;28;20056;-63
2023/04/01 00:24:18;;;;;;;15.43;9.13;;;;;;;;;;5049465;28;20049;-63
2023/04/01 00:26:44;;;;;;;17.77;8.30;;;;;;;;;;5048819;28;20059;-63
2023/04/01 00:29:11;;;;;;;22.77;8.63;;;;;;;;;;5048361;28;20060;-63
2023/04/01 00:31:37;;;;;;;13.87;7.93;;;;;;;;;;5048223;28;20060;-63
2023/04/01 00:34:03;;;;;;;15.27;8.50;;;;;;;;;;5048542;28;20044;-63
2023/04/01 00:36:29;;;;;;;14.93;8.50;;;;;;;;;;5048409;28;20049;-63
2023/04/01 00:38:55;;;;;;;21.97;9.67;;;;;;;;;;5048666;28;20072;-63
2023/04/01 00:41:22;;;;;;;23.10;9.33;;;;;;;;;;5048098;28;20037;-63
2023/04/01 00:43:49;;;;;;;25.33;9.27;;;;;;;;;;5048130;28;20048;-63
2023/04/01 00:46:15;;;;;;;16.90;8.37;;;;;;;;;;5048700;28;20052;-63
2023/04/01 00:48:48;;;;;;;18.27;8.40;;;;;;;;;;5046185;28;20049;-63
2023/04/01 00:51:27;;;;;;;15.35;7.95;;;;;;;;;;5048095;28;20048;-63
2023/04/01 00:53:54;;;;;;;14.07;7.77;;;;;;;;;;5047578;28;20037;-63
2023/04/01 00:56:23;;;;;;;18.53;8.07;;;;;;;;;;5047626;28;20045;-63
2023/04/01 00:58:55;;;;;;;17.30;8.07;;;;;;;;;;5048080;28;20563;-63
2023/04/01 01:01:23;;;;;;;22.57;9.60;;;;;;;;;;5046652;28;20868;-63
2023/04/01 01:03:49;;;;;;;19.33;8.30;;;;;;;;;;5048194;28;20045;-63
2023/04/01 01:06:23;;;;;;;22.53;8.57;;;;;;;;;;5048128;28;20049;-63
2023/04/01 01:08:49;;;;;;;21.50;8.77;;;;;;;;;;5047833;28;20059;-63
2023/04/01 01:11:17;;;;;;;21.03;9.37;;;;;;;;;;5047521;28;20041;-63
2023/04/01 01:13:46;;;;;;;21.00;9.33;;;;;;;;;;5047786;28;20041;-63
2023/04/01 01:16:16;;;;;;;14.07;8.17;;;;;;;;;;5046489;28;20839;-64
2023/04/01 01:19:01;;;;;;;17.90;8.60;;;;;;;;;;5047012;28;20179;-63
2023/04/01 01:21:39;;;;;;;28.07;10.80;;;;;;;;;;5047553;28;20053;-63
2023/04/01 01:24:08;;;;;;;20.57;8.97;;;;;;;;;;5047362;28;20057;-63
2023/04/01 01:26:46;;;;;;;23.40;9.90;;;;;;;;;;5062798;28;20142;-63
2023/04/01 01:29:31;;;;;;;19.67;9.97;;;;;;;;;;5010653;28;1072347;-63
2023/04/01 01:32:00;;;;;;;26.67;10.37;;;;;;;;;;5047813;28;20064;-62
2023/04/01 01:34:36;;;;;;;23.63;10.17;;;;;;;;;;5048692;28;20464;-63
2023/04/01 01:37:06;;;;;;;25.93;10.03;;;;;;;;;;5048182;28;20048;-63
2023/04/01 01:39:34;;;;;;;20.37;9.03;;;;;;;;;;5048011;28;20061;-63
2023/04/01 01:42:03;;;;;;;24.77;9.93;;;;;;;;;;5048735;28;20075;-62
2023/04/01 01:44:30;;;;;;;22.93;10.27;;;;;;;;;;5048447;28;20041;-62
2023/04/01 01:46:57;;;;;;;28.33;11.30;;;;;;;;;;5048224;28;20450;-62
2023/04/01 01:49:24;;;;;;;25.40;10.53;;;;;;;;;;5048364;28;20045;-62
2023/04/01 01:51:50;;;;;;;26.67;11.33;;;;;;;;;;5048209;28;20774;-62
2023/04/01 01:54:19;;;;;;;19.37;9.33;;;;;;;;;;5047199;28;20052;-62
2023/04/01 01:56:49;;;;;;;29.20;10.33;;;;;;;;;;5048286;28;20052;-62
2023/04/01 01:59:16;;;;;;;22.70;9.87;;;;;;;;;;5047947;28;20103;-62
2023/04/01 02:01:44;;;;;;;23.33;10.43;;;;;;;;;;5048182;28;20064;-63
2023/04/01 02:04:11;;;;;;;20.73;8.60;;;;;;;;;;5047994;28;20044;-63
2023/04/01 02:06:38;;;;;;;23.40;9.50;;;;;;;;;;5048083;28;20048;-62
2023/04/01 02:09:06;;;;;;;22.27;10.13;;;;;;;;;;5048073;28;20078;-62
2023/04/01 02:11:38;;;;;;;19.90;9.63;;;;;;;;;;5047969;28;20049;-63
2023/04/01 02:14:23;;;;;;;29.60;11.13;;;;;;;;;;5047672;28;20534;-62
2023/04/01 02:16:54;;;;;;;31.20;11.20;;;;;;;;;;5046958;28;20139;-63
2023/04/01 02:19:22;;;;;;;32.53;11.63;;;;;;;;;;5047998;28;20132;-62
2023/04/01 02:21:53;;;;;;;26.60;10.77;;;;;;;;;;5047737;28;20044;-63
2023/04/01 02:24:22;;;;;;;32.40;11.07;;;;;;;;;;5048314;28;20049;-63
2023/04/01 02:26:49;;;;;;;30.47;10.70;;;;;;;;;;5048454;28;20054;-63
2023/04/01 02:29:16;;;;;;;23.97;10.17;;;;;;;;;;5050529;28;20091;-63
2023/04/01 02:31:43;;;;;;;33.03;11.70;;;;;;;;;;5051444;28;20044;-63
2023/04/01 02:34:09;;;;;;;32.50;11.77;;;;;;;;;;5051142;28;20401;-62
2023/04/01 02:36:36;;;;;;;25.33;10.50;;;;;;;;;;5051584;28;20041;-63
2023/04/01 02:39:04;;;;;;;26.67;10.77;;;;;;;;;;5051368;28;20514;-62
2023/04/01 02:41:30;;;;;;;35.07;11.63;;;;;;;;;;5050995;28;20124;-62
2023/04/01 02:43:58;;;;;;;28.37;10.83;;;;;;;;;;5050855;28;20402;-62
2023/04/01 02:46:24;;;;;;;25.73;9.17;;;;;;;;;;5051461;28;20048;-63
2023/04/01 02:48:50;;;;;;;28.63;10.93;;;;;;;;;;5050780;28;20049;-63
2023/04/01 02:51:16;;;;;;;29.70;10.73;;;;;;;;;;5051227;28;20502;-63
2023/04/01 02:53:42;;;;;;;29.47;10.60;;;;;;;;;;5050685;28;20059;-63
2023/04/01 02:56:08;;;;;;;23.53;9.80;;;;;;;;;;5050697;28;20052;-63
2023/04/01 02:58:35;;;;;;;22.33;10.07;;;;;;;;;;5051167;28;20048;-63
2023/04/01 03:01:01;;;;;;;42.63;13.07;;;;;;;;;;5050825;28;20048;-63
2023/04/01 03:03:27;;;;;;;25.53;9.87;;;;;;;;;;5050908;28;20079;-63
2023/04/01 03:05:56;;;;;;;27.63;10.17;;;;;;;;;;5050303;28;20517;-63
2023/04/01 03:08:22;;;;;;;30.27;11.50;;;;;;;;;;5050991;28;20513;-63
2023/04/01 03:10:48;;;;;;;26.30;10.67;;;;;;;;;;5050403;28;20404;-62
2023/04/01 03:13:14;;;;;;;30.40;11.87;;;;;;;;;;5051023;28;20045;-62
2023/04/01 03:15:40;;;;;;;40.73;13.03;;;;;;;;;;5050579;28;20087;-63
2023/04/01 03:18:06;;;;;;;30.33;10.87;;;;;;;;;;5050684;28;20111;-63
2023/04/01 03:20:32;;;;;;;31.30;11.43;;;;;;;;;;5049962;28;20057;-63
2023/04/01 03:22:58;;;;;;;39.17;12.83;;;;;;;;;;5050123;28;20518;-62
2023/04/01 03:25:25;;;;;;;54.17;13.90;;;;;;;;;;5050595;28;20059;-63
2023/04/01 03:27:51;;;;;;;41.83;13.20;;;;;;;;;;5049957;28;20064;-63
2023/04/01 03:30:17;;;;;;;34.97;11.63;;;;;;;;;;5050363;28;20136;-63
2023/04/01 03:32:43;;;;;;;33.83;12.47;;;;;;;;;;5050448;28;20049;-62
2023/04/01 03:35:10;;;;;;;33.07;11.43;;;;;;;;;;5049560;28;20053;-63
2023/04/01 03:37:36;;;;;;;32.57;11.67;;;;;;;;;;5050148;28;20131;-62
2023/04/01 03:40:02;;;;;;;30.97;11.23;;;;;;;;;;5049413;28;20044;-63
2023/04/01 03:42:28;;;;;;;31.50;10.97;;;;;;;;;;5048543;28;20442;-63
2023/04/01 03:44:54;;;;;;;43.57;13.00;;;;;;;;;;5049841;28;20527;-63
2023/04/01 03:47:20;;;;;;;44.47;12.20;;;;;;;;;;5050016;28;20051;-63
2023/04/01 03:49:46;;;;;;;34.60;10.80;;;;;;;;;;5049998;28;20052;-63
2023/04/01 03:52:12;;;;;;;32.47;10.57;;;;;;;;;;5049497;28;20056;-63
2023/04/01 03:54:39;;;;;;;34.43;11.03;;;;;;;;;;5049495;28;20061;-63
2023/04/01 03:57:05;;;;;;;29.93;10.40;;;;;;;;;;5049526;28;20049;-63
2023/04/01 03:59:31;;;;;;;36.03;11.80;;;;;;;;;;5049544;28;20064;-63
2023/04/01 04:01:57;;;;;;;42.03;13.00;;;;;;;;;;5048686;28;20045;-63
2023/04/01 04:04:23;;;;;;;36.00;11.50;;;;;;;;;;5049952;28;20044;-63
2023/04/01 04:06:51;;;;;;;41.80;11.60;;;;;;;;;;5048971;28;20068;-64
2023/04/01 04:09:17;;;;;;;39.30;11.40;;;;;;;;;;5049496;28;20055;-64
2023/04/01 04:11:43;;;;;;;43.40;11.53;;;;;;;;;;5048924;28;20041;-63
2023/04/01 04:14:09;;;;;;;38.33;11.27;;;;;;;;;;5049638;28;20796;-63
2023/04/01 04:16:36;;;;;;;47.00;12.23;;;;;;;;;;5049217;28;20167;-63
2023/04/01 04:19:03;;;;;;;52.97;12.53;;;;;;;;;;5049175;28;20048;-63
2023/04/01 04:21:29;;;;;;;63.43;13.83;;;;;;;;;;5049298;28;20542;-63
2023/04/01 04:23:55;;;;;;;52.67;12.47;;;;;;;;;;5049597;28;20555;-63
2023/04/01 04:26:21;;;;;;;41.77;11.40;;;;;;;;;;5048860;28;20053;-63
2023/04/01 04:28:47;;;;;;;63.93;13.63;;;;;;;;;;5048579;28;20053;-63
2023/04/01 04:31:19;;;;;;;52.47;12.77;;;;;;;;;;5049460;28;20726;-63
2023/04/01 04:33:45;;;;;;;47.83;12.20;;;;;;;;;;5048780;28;20048;-63
2023/04/01 04:36:11;;;;;;;43.57;12.43;;;;;;;;;;5049165;28;20127;-63
2023/04/01 04:38:37;;;;;;;46.40;11.43;;;;;;;;;;5049680;28;20045;-63
2023/04/01 04:41:03;;;;;;;53.73;12.77;;;;;;;;;;5048876;28;20049;-64
2023/04/01 04:43:29;;;;;;;38.87;11.43;;;;;;;;;;5048752;28;20037;-63
2023/04/01 04:45:55;;;;;;;84.43;15.10;;;;;;;;;;5049048;28;20510;-63
2023/04/01 04:48:21;;;;;;;67.03;13.03;;;;;;;;;;5048685;28;20059;-64
2023/04/01 04:50:48;;;;;;;42.03;11.10;;;;;;;;;;5048852;28;20151;-64
2023/04/01 04:53:15;;;;;;;44.63;10.83;;;;;;;;;;5048946;28;20052;-63
2023/04/01 04:55:49;;;;;;;55.83;11.83;;;;;;;;;;5048102;28;20057;-64
2023/04/01 04:58:15;;;;;;;54.70;11.70;;;;;;;;;;5049189;28;20045;-63
2023/04/01 05:00:41;;;;;;;80.03;13.83;;;;;;;;;;5048738;28;20057;-64
2023/04/01 05:03:09;;;;;;;79.00;13.97;;;;;;;;;;5049213;28;20163;-64
2023/04/01 05:05:35;;;;;;;81.10;13.40;;;;;;;;;;5049205;28;20055;-63
2023/04/01 05:08:02;;;;;;;83.90;14.53;;;;;;;;;;5047475;28;20499;-63
2023/04/01 05:10:28;;;;;;;64.97;12.73;;;;;;;;;;5048719;28;20132;-63
2023/04/01 05:12:54;;;;;;;85.23;14.33;;;;;;;;;;5048646;28;20123;-63
2023/04/01 05:15:20;;;;;;;103.97;16.17;;;;;;;;;;5048075;28;20726;-64
2023/04/01 05:17:46;;;;;;;96.40;14.10;;;;;;;;;;5048558;28;20491;-63
2023/04/01 05:20:13;;;;;;;71.83;12.93;;;;;;;;;;5048595;28;20041;-63
2023/04/01 05:22:40;;;;;;;80.60;12.47;;;;;;;;;;5048587;28;20171;-63
2023/04/01 05:25:06;;;;;;;81.83;13.30;;;;;;;;;;5048383;28;20078;-63
2023/04/01 05:27:32;;;;;;;63.30;11.63;;;;;;;;;;5048370;28;20138;-64
2023/04/01 05:29:58;;;;;;;87.93;12.80;;;;;;;;;;5047713;28;20053;-64
2023/04/01 05:32:24;;;;;;;37.43;8.70;;;;;;;;;;5048599;28;20111;-63
2023/04/01 05:34:51;;;;;;;89.53;11.67;;;;;;;;;;5048004;28;20111;-64
2023/04/01 05:37:17;;;;;;;84.33;13.43;;;;;;;;;;5046507;28;20522;-63
2023/04/01 05:39:43;;;;;;;73.70;13.83;;;;;;;;;;5048310;28;20053;-64
2023/04/01 05:42:09;;;;;;;126.97;18.87;;;;;;;;;;5048145;28;20569;-64
2023/04/01 05:44:36;;;;;;;83.00;16.13;;;;;;;;;;5048296;28;20045;-63
2023/04/01 05:47:03;;;;;;;109.80;18.20;;;;;;;;;;5048147;28;20432;-63
2023/04/01 05:49:29;;;;;;;105.13;16.97;;;;;;;;;;5047936;28;20502;-63
2023/04/01 05:51:55;;;;;;;45.77;12.10;;;;;;;;;;5048109;28;20049;-63
2023/04/01 05:54:21;;;;;;;61.47;13.17;;;;;;;;;;5048190;28;20582;-64
2023/04/01 05:56:47;;;;;;;49.23;11.13;;;;;;;;;;5047947;28;20041;-63
2023/04/01 05:59:13;;;;;;;64.63;12.87;;;;;;;;;;5047574;28;20056;-63
2023/04/01 06:01:40;;;;;;;73.13;13.43;;;;;;;;;;5048941;28;20049;-63
2023/04/01 06:04:06;;;;;;;46.93;10.33;;;;;;;;;;5051707;28;20513;-63
2023/04/01 06:06:32;;;;;;;53.77;11.67;;;;;;;;;;5051766;28;20179;-63
2023/04/01 06:09:01;;;;;;;73.73;13.50;;;;;;;;;;5051636;28;20487;-63
2023/04/01 06:11:28;;;;;;;62.50;12.47;;;;;;;;;;5051550;28;20087;-63
2023/04/01 06:14:12;;;;;;;66.60;13.47;;;;;;;;;;5051957;28;20099;-63
2023/04/01 06:16:54;;;;;;;84.70;15.00;;;;;;;;;;5051841;28;20049;-63
2023/04/01 06:19:32;;;;;;;76.60;14.93;;;;;;;;;;5051122;28;20515;-63
2023/04/01 06:22:16;;;;;;;99.47;18.27;;;;;;;;;;5051430;28;20049;-63
2023/04/01 06:24:56;;;;;;;51.87;12.90;;;;;;;;;;5051165;28;20415;-62
2023/04/01 06:27:38;;;;;;;63.90;14.30;;;;;;;;;;5051322;28;20095;-63
2023/04/01 06:30:08;;;;;;;781.53;123.30;;;;;;;;;;5051174;28;20048;-63
2023/04/01 06:32:47;;;;;;;109.97;20.03;;;;;;;;;;5051400;28;20055;-62
2023/04/01 06:35:32;;;;;;;279.03;40.47;;;;;;;;;;5044667;28;20055;-63
2023/04/01 06:38:19;;;;;;;110.80;18.27;;;;;;;;;;5041749;28;20152;-63
2023/04/01 06:40:58;;;;;;;105.93;19.53;;;;;;;;;;5041439;28;20088;-63
2023/04/01 06:43:28;;;;;;;138.77;21.27;;;;;;;;;;5039495;28;20038;-63
2023/04/01 06:46:01;;;;;;;115.97;20.17;;;;;;;;;;5050772;28;20048;-63
2023/04/01 06:48:46;;;;;;;109.18;20.40;;;;;;;;;;5051082;28;20053;-63
2023/04/01 06:51:12;;;;;;;68.37;17.50;;;;;;;;;;5043561;28;20104;-63
2023/04/01 06:53:57;;;;;;;244.03;28.57;;;;;;;;;;5040248;28;20045;-63
2023/04/01 06:56:26;;;;;;;278.03;29.47;;;;;;;;;;5041768;28;20130;-64
2023/04/01 06:58:57;;;;;;;97.60;19.47;;;;;;;;;;5041966;28;20392;-63
2023/04/01 07:01:26;;;;;;;94.80;19.33;;;;;;;;;;5039037;28;20053;-63
2023/04/01 07:03:52;;;;;;;130.03;21.87;;;;;;;;;;5033450;28;20095;-64
2023/04/01 07:06:31;;;;;;;153.00;21.53;;;;;;;;;;5044746;28;20048;-64
2023/04/01 07:09:00;;;;;;;116.97;20.53;;;;;;;;;;5047352;28;20060;-63
2023/04/01 07:11:34;;;;;;;152.47;21.57;;;;;;;;;;5037498;28;20871;-64
2023/04/01 07:14:07;;;;;;;99.73;17.80;;;;;;;;;;5037705;28;20057;-63
2023/04/01 07:16:34;;;;;;;74.25;15.65;;;;;;;;;;5040421;28;20052;-64
2023/04/01 07:19:06;;;;;;;74.43;15.80;;;;;;;;;;5040457;28;20037;-64
2023/04/01 07:21:36;;;;;;;69.60;14.80;;;;;;;;;;5040432;28;20514;-64
2023/04/01 07:24:07;;;;;;;85.22;16.52;;;;;;;;;;5039825;28;20056;-64
2023/04/01 07:26:33;;;;;;;64.47;15.53;;;;;;;;;;5035011;28;20049;-64
2023/04/01 07:29:00;;;;;;;52.07;14.10;;;;;;;;;;5029271;28;20054;-64
2023/04/01 07:31:34;;;;;;;79.27;16.90;;;;;;;;;;5037538;28;20515;-64
2023/04/01 07:34:11;;;;;;;37.20;12.20;;;;;;;;;;5031535;28;20053;-64
2023/04/01 07:36:37;;;;;;;78.27;17.07;;;;;;;;;;5029095;28;20041;-64
2023/04/01 07:39:13;;;;;;;56.10;16.07;;;;;;;;;;5029360;28;20045;-64
2023/04/01 07:41:40;;;;;;;56.37;15.10;;;;;;;;;;5038828;28;20052;-64
2023/04/01 07:44:10;;;;;;;104.43;20.43;;;;;;;;;;5037884;28;20396;-63
2023/04/01 07:47:00;;;;;;;54.60;14.67;;;;;;;;;;5038472;28;20048;-64
2023/04/01 07:49:26;;;;;;;111.33;21.37;;;;;;;;;;5036512;28;20112;-63
2023/04/01 07:52:08;;;;;;;78.73;16.63;;;;;;;;;;5037580;28;20511;-64
2023/04/01 07:54:56;;;;;;;78.60;16.77;;;;;;;;;;5038982;28;20076;-64
2023/04/01 07:57:25;;;;;;;55.07;14.53;;;;;;;;;;5038652;28;20265;-64
2023/04/01 08:00:05;;;;;;;67.30;15.70;;;;;;;;;;5037559;28;20037;-63
2023/04/01 08:02:37;;;;;;;53.43;14.77;;;;;;;;;;5038453;28;20052;-64
2023/04/01 08:05:22;;;;;;;41.17;12.27;;;;;;;;;;5039170;28;20495;-64
2023/04/01 08:07:57;;;;;;;33.57;11.53;;;;;;;;;;5039016;28;20045;-64
2023/04/01 08:10:24;;;;;;;35.43;12.07;;;;;;;;;;5039535;28;20454;-64
2023/04/01 08:12:55;;;;;;;21.03;9.40;;;;;;;;;;5031395;28;20527;-64
2023/04/01 08:15:26;;;;;;;40.37;12.03;;;;;;;;;;5029827;28;20050;-64
2023/04/01 08:17:59;;;;;;;37.23;11.33;;;;;;;;;;5029092;28;20052;-64
2023/04/01 08:20:30;;;;;;;56.47;13.93;;;;;;;;;;5029006;28;20080;-64
2023/04/01 08:23:17;;;;;;;55.77;12.73;;;;;;;;;;5029007;28;20515;-64
2023/04/01 08:26:06;;;;;;;43.43;11.97;;;;;;;;;;5028809;28;20050;-64
2023/04/01 08:28:38;;;;;;;36.70;10.57;;;;;;;;;;5025173;28;20053;-64
2023/04/01 08:31:13;;;;;;;24.27;9.83;;;;;;;;;;5027185;28;20172;-64
2023/04/01 08:33:40;;;;;;;17.23;8.07;;;;;;;;;;5026830;28;20053;-65
2023/04/01 08:36:12;;;;;;;32.07;9.57;;;;;;;;;;5027204;28;20046;-64
2023/04/01 08:38:41;;;;;;;14.77;6.57;;;;;;;;;;5026754;28;20057;-64
2023/04/01 08:41:11;;;;;;;46.57;10.57;;;;;;;;;;5026955;28;20087;-64
2023/04/01 08:44:05;;;;;;;61.57;11.63;;;;;;;;;;5025579;28;20046;-64
2023/04/01 08:46:31;;;;;;;;;;;;;;;;;;5026215;28;20064;-65
2023/04/01 08:49:10;;;;;;;61.40;11.20;;;;;;;;;;5026626;28;19980;-64
2023/04/01 08:51:56;;;;;;;29.60;7.13;;;;;;;;;;5026832;28;20041;-64
2023/04/01 08:54:29;;;;;;;34.17;8.63;;;;;;;;;;5026818;28;20153;-64
2023/04/01 08:57:04;;;;;;;22.80;6.32;;;;;;;;;;5027467;28;20147;-64
2023/04/01 08:59:49;;;;;;;67.10;11.27;;;;;;;;;;5028670;28;20132;-65
2023/04/01 09:02:30;;;;;;;35.97;8.33;;;;;;;;;;5028652;28;20543;-65
2023/04/01 09:05:15;;;;;;;20.20;6.03;;;;;;;;;;5032243;28;20064;-64
2023/04/01 09:07:51;;;;;;;20.67;5.53;;;;;;;;;;5047992;28;20053;-64
2023/04/01 09:10:23;;;;;;;20.97;5.50;;;;;;;;;;5046969;28;20052;-64
2023/04/01 09:12:59;;;;;;;22.17;6.10;;;;;;;;;;5048266;28;20041;-64
2023/04/01 09:15:34;;;;;;;9.10;4.10;;;;;;;;;;5048473;28;20515;-64
2023/04/01 09:18:00;;;;;;;16.73;5.33;;;;;;;;;;5047841;28;20127;-64
2023/04/01 09:20:29;;;;;;;14.17;4.60;;;;;;;;;;5048349;28;20140;-65
2023/04/01 09:23:05;;;;;;;14.73;4.67;;;;;;;;;;5048032;28;20049;-64
2023/04/01 09:25:49;;;;;;;11.53;4.20;;;;;;;;;;5048042;28;20533;-64
2023/04/01 09:28:19;;;;;;;11.67;4.10;;;;;;;;;;5047823;28;20060;-64
2023/04/01 09:30:54;;;;;;;10.47;3.67;;;;;;;;;;5048410;28;20107;-64
2023/04/01 09:33:39;;;;;;;8.60;3.10;;;;;;;;;;5048467;28;20049;-64
2023/04/01 09:36:08;;;;;;;6.13;1.93;;;;;;;;;;5048015;28;20185;-64
2023/04/01 09:38:37;;;;;;;5.40;2.17;;;;;;;;;;5051555;28;20140;-65
2023/04/01 09:41:21;;;;;;;7.37;2.80;;;;;;;;;;5052064;28;20052;-64
2023/04/01 09:43:56;;;;;;;6.23;2.47;;;;;;;;;;5052002;28;20099;-64
2023/04/01 09:46:25;;;;;;;9.60;3.73;;;;;;;;;;5051868;28;20472;-64
2023/04/01 09:49:07;;;;;;;9.33;3.80;;;;;;;;;;5051854;28;20049;-64
2023/04/01 09:51:49;;;;;;;7.50;3.50;;;;;;;;;;5051715;28;20049;-64
2023/04/01 09:54:18;;;;;;;9.23;3.80;;;;;;;;;;5052148;28;20148;-64
2023/04/01 09:56:57;;;;;;;8.17;4.47;;;;;;;;;;5051893;28;20284;-64
2023/04/01 09:59:32;;;;;;;6.97;4.27;;;;;;;;;;5051882;28;20045;-64
2023/04/01 10:01:58;;;;;;;11.77;5.30;;;;;;;;;;5051920;28;20102;-62
2023/04/01 10:04:33;;;;;;;12.10;5.60;;;;;;;;;;5051602;28;20506;-64
2023/04/01 10:07:06;;;;;;;14.57;6.43;;;;;;;;;;5051378;28;20037;-61
2023/04/01 10:09:32;;;;;;;12.83;7.47;;;;;;;;;;5051632;28;20135;-62
2023/04/01 10:12:16;;;;;;;15.27;8.03;;;;;;;;;;5051261;28;20055;-61
2023/04/01 10:14:42;;;;;;;;;;;;;;;;;;5050620;28;20052;-62
2023/04/01 10:17:16;;;;;;;13.57;7.63;;;;;;;;;;5050423;28;20003;-61
2023/04/01 10:19:45;;;;;;;14.77;8.33;;;;;;;;;;5051285;28;20049;-62
2023/04/01 10:22:17;;;;;;;10.07;7.40;;;;;;;;;;5034495;28;20049;-61
2023/04/01 10:25:18;;;;;;;16.13;8.80;;;;;;;;;;5031089;28;20053;-61
2023/04/01 10:27:44;;;;;;;19.73;9.50;;;;;;;;;;5028090;28;20057;-61
2023/04/01 10:30:19;;;;;;;15.57;8.47;;;;;;;;;;5031602;28;20111;-61
2023/04/01 10:33:01;;;;;;;11.50;8.13;;;;;;;;;;5041647;28;20045;-61
2023/04/01 10:35:51;;;;;;;14.47;8.60;;;;;;;;;;5035772;28;20623;-61
2023/04/01 10:38:36;;;;;;;18.60;9.77;;;;;;;;;;5030506;28;20390;-61
2023/04/01 10:41:02;;;;;;;13.13;8.87;;;;;;;;;;5037015;28;20388;-61
2023/04/01 10:44:00;;;;;;;11.37;6.63;;;;;;;;;;5039230;28;20107;-61
2023/04/01 10:46:26;;;;;;;12.13;7.30;;;;;;;;;;5029512;28;20057;-61
2023/04/01 10:49:01;;;;;;;9.80;7.40;;;;;;;;;;5039474;28;20045;-61
2023/04/01 10:51:27;;;;;;;14.20;8.10;;;;;;;;;;5038844;28;20042;-61
2023/04/01 10:54:12;;;;;;;10.57;7.80;;;;;;;;;;5042084;28;20503;-60
2023/04/01 10:56:50;;;;;;;10.03;7.40;;;;;;;;;;5050168;28;20140;-60
2023/04/01 10:59:16;;;;;;;17.53;8.87;;;;;;;;;;5040635;28;20037;-61
2023/04/01 11:01:58;;;;;;;9.57;7.33;;;;;;;;;;5032945;28;20114;-61
2023/04/01 11:04:49;;;;;;;14.33;8.40;;;;;;;;;;5042217;28;20081;-61
2023/04/01 11:07:24;;;;;;;12.20;8.40;;;;;;;;;;5043630;28;20547;-61
2023/04/01 11:10:09;;;;;;;18.17;9.00;;;;;;;;;;5034652;28;20048;-61
2023/04/01 11:12:47;;;;;;;14.07;8.60;;;;;;;;;;5039141;28;20167;-61
2023/04/01 11:15:40;;;;;;;16.23;10.70;;;;;;;;;;5038863;28;20048;-62
2023/04/01 11:18:15;;;;;;;9.50;7.47;;;;;;;;;;5030459;28;20049;-61
2023/04/01 11:21:07;;;;;;;14.07;8.43;;;;;;;;;;5032622;28;20514;-61
2023/04/01 11:23:40;;;;;;;10.67;7.13;;;;;;;;;;5042859;28;20033;-61
2023/04/01 11:26:18;;;;;;;11.77;7.40;;;;;;;;;;5044109;28;20053;-61
2023/04/01 11:28:58;;;;;;;12.63;8.07;;;;;;;;;;5041094;28;20058;-62
2023/04/01 11:31:24;;;;;;;13.70;8.63;;;;;;;;;;5040963;28;20049;-61
2023/04/01 11:34:01;;;;;;;11.10;7.63;;;;;;;;;;5048525;28;20057;-61
2023/04/01 11:36:40;;;;;;;8.73;7.17;;;;;;;;;;5044280;28;20046;-61
2023/04/01 11:39:06;;;;;;;8.67;6.50;;;;;;;;;;5038124;28;20081;-61
2023/04/01 11:41:35;;;;;;;16.07;10.47;;;;;;;;;;5038809;28;20042;-61
2023/04/01 11:44:13;;;;;;;14.37;9.50;;;;;;;;;;5038246;28;20458;-61
2023/04/01 11:46:57;;;;;;;27.60;10.93;;;;;;;;;;5039810;28;20050;-62
2023/04/01 11:49:23;;;;;;;13.20;9.00;;;;;;;;;;5040366;28;20080;-61
2023/04/01 11:51:52;;;;;;;13.33;9.37;;;;;;;;;;5042017;28;20526;-63
2023/04/01 11:54:21;;;;;;;13.10;9.37;;;;;;;;;;5044363;28;20048;-63
2023/04/01 11:56:50;;;;;;;14.07;9.50;;;;;;;;;;5041796;28;20048;-63
2023/04/01 11:59:40;;;;;;;15.03;9.80;;;;;;;;;;5038485;28;20049;-63
2023/04/01 12:02:13;;;;;;;15.77;9.27;;;;;;;;;;5040344;28;20606;-63
2023/04/01 12:04:54;;;;;;;20.23;10.30;;;;;;;;;;5037720;28;20446;-63
2023/04/01 12:07:45;;;;;;;13.47;8.67;;;;;;;;;;5043691;28;20087;-62
2023/04/01 12:10:17;;;;;;;11.50;7.93;;;;;;;;;;5042787;28;20498;-62
2023/04/01 12:12:53;;;;;;;14.00;9.23;;;;;;;;;;5047159;28;20140;-62
2023/04/01 12:15:31;;;;;;;16.13;9.70;;;;;;;;;;5046581;28;20302;-63
2023/04/01 12:18:03;;;;;;;13.63;9.17;;;;;;;;;;5042702;28;20388;-63
2023/04/01 12:20:42;;;;;;;15.73;9.27;;;;;;;;;;5040672;28;20564;-62
2023/04/01 12:23:20;;;;;;;11.07;8.03;;;;;;;;;;5038368;28;20128;-63
2023/04/01 12:25:52;;;;;;;10.90;8.13;;;;;;;;;;5037118;28;20440;-63
2023/04/01 12:28:18;;;;;;;12.93;8.73;;;;;;;;;;5037565;28;20429;-61
2023/04/01 12:30:44;;;;;;;13.20;8.03;;;;;;;;;;5049347;28;20045;-62
2023/04/01 12:33:22;;;;;;;11.53;8.47;;;;;;;;;;5047205;28;20534;-62
2023/04/01 12:36:18;;;;;;;10.33;7.33;;;;;;;;;;5039030;28;20052;-62
2023/04/01 12:38:56;;;;;;;8.70;7.10;;;;;;;;;;5060987;28;20041;-63
2023/04/01 12:41:28;;;;;;;9.80;7.20;;;;;;;;;;5036525;28;20052;-62
2023/04/01 12:44:01;;;;;;;9.97;7.23;;;;;;;;;;5030199;28;20176;-63
2023/04/01 12:46:51;;;;;;;11.00;7.13;;;;;;;;;;5029936;28;20049;-62
2023/04/01 12:49:24;;;;;;;11.30;7.50;;;;;;;;;;5029063;28;20132;-62
2023/04/01 12:51:50;;;;;;;8.50;6.13;;;;;;;;;;5029500;28;20522;-63
2023/04/01 12:54:39;;;;;;;16.57;7.53;;;;;;;;;;5028758;28;20053;-62
2023/04/01 12:57:21;;;;;;;10.67;7.27;;;;;;;;;;5048502;28;20526;-63
2023/04/01 12:59:54;;;;;;;11.30;7.57;;;;;;;;;;5038899;28;20052;-62
2023/04/01 13:02:31;;;;;;;14.65;7.10;;;;;;;;;;5040360;28;20132;-62
2023/04/01 13:05:16;;;;;;;10.90;7.10;;;;;;;;;;5039792;28;20041;-63
2023/04/01 13:07:42;;;;;;;10.70;6.90;;;;;;;;;;5034862;28;20068;-63
2023/04/01 13:10:25;;;;;;;11.10;6.70;;;;;;;;;;5035833;28;20798;-64
2023/04/01 13:12:54;;;;;;;;;;;;;;;;;;5031212;28;20041;-63
2023/04/01 13:15:35;;;;;;;10.73;7.27;;;;;;;;;;5034119;28;19928;-63
2023/04/01 13:18:04;;;;;;;8.40;6.00;;;;;;;;;;5044792;28;20396;-63
2023/04/01 13:20:56;;;;;;;9.50;6.70;;;;;;;;;;5043438;28;20040;-63
2023/04/01 13:23:55;;;;;;;8.63;5.80;;;;;;;;;;5042836;28;20049;-62
2023/04/01 13:26:35;;;;;;;8.47;5.60;;;;;;;;;;5031326;28;20053;-62
2023/04/01 13:29:01;;;;;;;8.87;5.97;;;;;;;;;;5036867;28;20070;-62
2023/04/01 13:31:33;;;;;;;7.43;5.50;;;;;;;;;;5040053;28;20499;-62
2023/04/01 13:34:14;;;;;;;7.87;5.57;;;;;;;;;;5040770;28;20518;-62
2023/04/01 13:36:49;;;;;;;8.50;5.80;;;;;;;;;;5035155;28;20567;-63
2023/04/01 13:39:20;;;;;;;8.03;5.37;;;;;;;;;;5036714;28;20052;-61
2023/04/01 13:42:04;;;;;;;8.97;6.17;;;;;;;;;;5037099;28;20470;-62
2023/04/01 13:44:39;;;;;;;7.77;5.67;;;;;;;;;;5037259;28;20049;-63
2023/04/01 13:47:24;;;;;;;7.20;5.20;;;;;;;;;;5031029;28;20045;-62
2023/04/01 13:49:53;;;;;;;6.40;4.73;;;;;;;;;;5042479;28;20128;-62
2023/04/01 13:52:26;;;;;;;6.80;5.20;;;;;;;;;;5029827;28;20216;-62
2023/04/01 13:55:19;;;;;;;8.23;5.63;;;;;;;;;;5028776;28;20511;-62
2023/04/01 13:58:03;;;;;;;8.43;5.70;;;;;;;;;;5032887;28;20091;-63
2023/04/01 14:00:48;;;;;;;7.23;5.43;;;;;;;;;;5033272;28;20041;-62
2023/04/01 14:03:29;;;;;;;8.03;5.80;;;;;;;;;;5038676;28;20049;-62
2023/04/01 14:06:17;;;;;;;9.97;6.23;;;;;;;;;;5035684;28;20053;-63
2023/04/01 14:08:53;;;;;;;7.63;5.77;;;;;;;;;;5038843;28;20120;-62
2023/04/01 14:11:34;;;;;;;6.93;5.37;;;;;;;;;;5039016;28;20044;-62
2023/04/01 14:14:07;;;;;;;6.67;5.40;;;;;;;;;;5036394;28;20044;-62
2023/04/01 14:16:55;;;;;;;6.67;5.53;;;;;;;;;;5040202;28;20041;-62
2023/04/01 14:19:28;;;;;;;9.07;6.03;;;;;;;;;;5037255;28;20326;-61
2023/04/01 14:22:03;;;;;;;8.90;5.83;;;;;;;;;;5039646;28;20124;-62
2023/04/01 14:24:57;;;;;;;8.67;6.03;;;;;;;;;;5042202;28;20041;-63
2023/04/01 14:27:24;;;;;;;;;;;;;;;;;;5051142;28;20056;-63
2023/04/01 14:30:10;;;;;;;9.23;6.43;;;;;;;;;;5042932;28;19925;-63
2023/04/01 14:32:49;;;;;;;9.13;6.73;;;;;;;;;;5051515;28;20084;-63
2023/04/01 14:35:21;;;;;;;10.43;6.57;;;;;;;;;;5043634;28;20038;-62
2023/04/01 14:37:47;;;;;;;5.70;4.60;;;;;;;;;;5035629;28;20045;-62
2023/04/01 14:40:35;;;;;;;6.33;5.10;;;;;;;;;;5035435;28;20080;-63
2023/04/01 14:43:10;;;;;;;6.77;5.07;;;;;;;;;;5031321;28;20048;-62
2023/04/01 14:45:46;;;;;;;7.03;5.10;;;;;;;;;;5039940;28;20056;-62
2023/04/01 14:48:31;;;;;;;6.40;4.70;;;;;;;;;;5067010;28;20447;-62
2023/04/01 14:51:03;;;;;;;9.80;4.93;;;;;;;;;;5051325;28;20056;-62
2023/04/01 14:53:31;;;;;;;6.43;5.03;;;;;;;;;;5051373;28;20056;-63
2023/04/01 14:56:00;;;;;;;6.20;4.67;;;;;;;;;;5051164;28;20419;-63
2023/04/01 14:58:46;;;;;;;6.00;4.80;;;;;;;;;;5051063;28;20041;-62